This is the latest recevied weather packets stored in our database for station/object KE0LFX. If no packets are shown the sender has not sent any weather packets the latest 10 day(s).
| Time | Temp. | Humidity | Pressure | Rain* | Wind** | Luminosity | Snow |
|---|---|---|---|---|---|---|---|
| 1778006974 | 13.89° C | 38% | 1015.2 hPa | 0 mm | - | 333 W/m² | - |
| 1778006672 | 13.33° C | 38% | 1015.2 hPa | 0 mm | - | 351 W/m² | - |
| 1778006368 | 13.33° C | 39% | 1015.3 hPa | 0 mm | - | 368 W/m² | - |
| 1778006065 | 13.33° C | 39% | 1015.4 hPa | 0 mm | - | 277 W/m² | - |
| 1778005762 | 13.89° C | 40% | 1015.5 hPa | 0 mm | - | 272 W/m² | - |
| 1778005459 | 13.33° C | 38% | 1015.2 hPa | 0 mm | - | 278 W/m² | - |
| 1778005155 | 13.33° C | 39% | 1015.3 hPa | 0 mm | - | 240 W/m² | - |
| 1778004853 | 13.89° C | 39% | 1015.4 hPa | 0 mm | - | 255 W/m² | - |
| 1778004549 | 13.33° C | 39% | 1015.5 hPa | 0 mm | - | 444 W/m² | - |
| 1778004246 | 12.78° C | 41% | 1015.2 hPa | 0 mm | - | 728 W/m² | - |
| 1778003942 | 13.33° C | 40% | 1015.5 hPa | 0 mm | - | 209 W/m² | - |
| 1778003639 | 12.78° C | 42% | 1015.6 hPa | 0 mm | - | 237 W/m² | - |
| 1778003335 | 12.78° C | 41% | 1015.5 hPa | 0 mm | - | 258 W/m² | - |
| 1778003033 | 12.78° C | 43% | 1015.6 hPa | 0 mm | - | 240 W/m² | - |
| 1778002729 | 12.78° C | 41% | 1015.5 hPa | 0 mm | - | 271 W/m² | - |
| 1778002425 | 12.78° C | 40% | 1015.4 hPa | 0 mm | - | 242 W/m² | - |
| 1778002122 | 12.78° C | 40% | 1015.8 hPa | 0 mm | - | 270 W/m² | - |
| 1778001820 | 12.78° C | 42% | 1015.7 hPa | 0 mm | - | 262 W/m² | - |
| 1778001520 | 12.78° C | 41% | 1015.7 hPa | 0 mm | - | 213 W/m² | - |
| 1778001217 | 12.22° C | 43% | 1015.7 hPa | 0 mm | - | 202 W/m² | - |
| 1778000913 | 12.22° C | 41% | 1015.7 hPa | 0 mm | - | 235 W/m² | - |
| 1778000610 | 12.22° C | 42% | 1015.8 hPa | 0 mm | - | 211 W/m² | - |
| 1778000305 | 11.67° C | 43% | 1015.6 hPa | 0 mm | - | 263 W/m² | - |
| 1778000001 | 12.22° C | 44% | 1015.8 hPa | 0 mm | - | 243 W/m² | - |
| 1777999697 | 11.67° C | 43% | 1015.4 hPa | 0 mm | - | 231 W/m² | - |
* Rain latest hour (hover to see other rain measurements)
** Current wind speed in m/s (hover to see current wind gust speed)